Aérodrome :
LOGIN :

S'inscrire | Disclaimer

   EN    FR    IT 

 










Légende :    VFR   VFR Marginal   IFR   IFR Intensif   IFR Très Intensif
Visi : 
Plafond : 
>= 8 km
>= 3000ft
5 à 8 km
1000 à 3000 ft
1500m à 5 km
500 à 1000 ft
800 à 1500m
200 à 500 ft
< 800m
< 200 ft
Symboles :   Orages  Brouillard  Fortes neiges  Fortes précipitations  Vent > 20 kt
SIGMETs :   Divers  Orages  Givrage  Turbulence  Onde Orograph.  Cendres Volcan.






- Altitude de l'aérodrome : 287 ft
- Code IATA : TOE


DTTZ - Nefta - Tozeur

DERNIER METAR :
  • 290600Z AUTO 03014KT NCD 14/10 Q1011

METARs EXPIRÉS :
  • 290500Z AUTO 02015KT NCD 14/10 Q1011
  • 290400Z AUTO 34005KT NCD 13/11 Q1011

TAF TAF DTTZ
Valide du 29 à 06h jusqu'au 30 à 06h UTC


290500Z 2906/3006 02015KT 9999 SCT030
PROB30
TEMPO 2911/2917 4000 -TSRA FEW026CB



MET'MAP, la Météo Aéronautique d'un coup d'oeil ! - Copyright ORBIFLY Décembre 2007 - Disclaimer

ORBIFLY MET'MAP TEAM :

Programmation & Développement : Alexandra Zaïnal
Sur une idée originale de : Baudouin d'Aumeries
Assistance à la programmation : Marc-Olivier Méhu
Soutien technique & logistique : Manuel Goepfert

Contact : metmap@orbifly.com




SOURCES & CREDITS :

   NOAA